Time;durP1;ratioP1;P1;durP2;ratioP2;P2;SDS_P1;SDS_P2;PMS_P1;PMS_P2;Temp;Humidity;BMP_temperature;BMP_pressure;BME280_temperature;BME280_humidity;BME280_pressure;Samples;Min_cycle;Max_cycle;Signal;HPM_P1;HPM_P2
2022/02/21 00:00:39;;;;;;;;;;;;;;;28.90;63.13;100993.56;4974665;27;65578;-42
2022/02/21 00:03:08;;;;;;;;;;;;;;;28.92;63.54;101003.13;4977978;28;70742;-41
2022/02/21 00:05:38;;;;;;;;;;;;;;;28.98;64.52;101000.66;4983480;27;66425;-43
2022/02/21 00:08:08;;;;;;;;;;;;;;;29.03;64.63;101003.53;4981210;28;70282;-40
2022/02/21 00:10:38;;;;;;;;;;;;;;;29.00;67.20;101009.34;4977445;28;65663;-44
2022/02/21 00:13:08;;;;;;;;;;;;;;;29.05;66.73;101017.69;4972101;28;69959;-44
2022/02/21 00:15:37;;;;;;;;;;;;;;;29.01;68.69;101024.53;5023145;28;66584;-43
2022/02/21 00:18:07;;;;;;;;;;;;;;;29.05;68.15;101023.09;4967387;28;69184;-42
2022/02/21 00:20:37;;;;;;;;;;;;;;;29.09;69.10;101029.78;4974244;28;66563;-42
2022/02/21 00:23:07;;;;;;;;;;;;;;;29.13;68.37;101031.03;4977562;28;69354;-43
2022/02/21 00:25:38;;;;;;;;;;;;;;;29.16;68.63;101036.00;4979101;28;65453;-42
2022/02/21 00:28:09;;;;;;;;;;;;;;;29.18;69.13;101042.88;4973954;28;69840;-44
2022/02/21 00:30:41;;;;;;;;;;;;;;;29.22;67.23;101040.59;4992526;28;64338;-42
2022/02/21 00:33:11;;;;;;;;;;;;;;;29.26;67.01;101041.84;4976749;28;70365;-42
2022/02/21 00:35:40;;;;;;;;;;;;;;;29.30;66.72;101037.69;4976382;28;65414;-41
2022/02/21 00:38:10;;;;;;;;;;;;;;;29.35;66.99;101039.78;4979716;28;69232;-41
2022/02/21 00:40:40;;;;;;;;;;;;;;;29.39;66.60;101047.28;4979625;28;65619;-41
2022/02/21 00:43:10;;;;;;;;;;;;;;;29.45;66.42;101045.63;4977723;28;70481;-42
2022/02/21 00:45:39;;;;;;;;;;;;;;;29.49;66.47;101051.44;4980098;28;66306;-41
2022/02/21 00:48:09;;;;;;;;;;;;;;;29.54;66.01;101048.94;4979185;28;69969;-42
2022/02/21 00:50:39;;;;;;;;;;;;;;;29.56;65.97;101052.25;4986076;28;66447;-41
2022/02/21 00:53:09;;;;;;;;;;;;;;;29.60;65.61;101064.34;4977065;28;69455;-40
2022/02/21 00:55:39;;;;;;;;;;;;;;;29.63;65.43;101069.34;4977057;28;65644;-40
2022/02/21 00:58:09;;;;;;;;;;;;;;;29.65;65.21;101064.59;4962134;28;70284;-41
2022/02/21 01:00:39;;;;;;;;;;;;;;;29.68;65.49;101072.28;4978245;28;65802;-41
2022/02/21 01:03:09;;;;;;;;;;;;;;;29.70;64.32;101075.63;4977125;28;70120;-41
2022/02/21 01:05:40;;;;;;;;;;;;;;;29.72;64.35;101081.63;4976234;28;65364;-41
2022/02/21 01:08:10;;;;;;;;;;;;;;;29.73;63.34;101077.91;4991508;27;70014;-41
2022/02/21 01:10:40;;;;;;;;;;;;;;;29.77;63.04;101081.84;4972852;28;66179;-42
2022/02/21 01:13:10;;;;;;;;;;;;;;;29.78;63.14;101086.22;4965959;28;70633;-40
2022/02/21 01:15:39;;;;;;;;;;;;;;;29.81;62.76;101093.91;4978400;28;66792;-41
2022/02/21 01:18:09;;;;;;;;;;;;;;;29.82;63.43;101103.69;4978487;28;70569;-41
2022/02/21 01:20:39;;;;;;;;;;;;;;;29.82;63.37;101095.56;4977109;28;67079;-41
2022/02/21 01:23:09;;;;;;;;;;;;;;;29.84;63.89;101104.31;4989366;27;69106;-40
2022/02/21 01:25:40;;;;;;;;;;;;;;;29.88;63.57;101098.47;4980102;28;66295;-40
2022/02/21 01:28:10;;;;;;;;;;;;;;;29.88;63.94;101098.47;4964413;28;68692;-41
2022/02/21 01:30:40;;;;;;;;;;;;;;;29.91;63.43;101103.47;4977065;28;66653;-40
2022/02/21 01:33:09;;;;;;;;;;;;;;;29.92;63.53;101105.13;4977899;28;70205;-41
2022/02/21 01:35:39;;;;;;;;;;;;;;;29.93;63.11;101107.63;4977783;28;66234;-41
2022/02/21 01:38:09;;;;;;;;;;;;;;;29.96;62.41;101117.22;4982368;27;70068;-41
2022/02/21 01:40:39;;;;;;;;;;;;;;;29.97;62.27;101119.69;4975706;27;65829;-40
2022/02/21 01:43:08;;;;;;;;;;;;;;;29.99;61.93;101116.78;4974833;28;70423;-39
2022/02/21 01:45:38;;;;;;;;;;;;;;;30.00;62.17;101118.44;4977154;28;65620;-41
2022/02/21 01:48:07;;;;;;;;;;;;;;;30.02;61.84;101116.38;4978845;27;71062;-44
2022/02/21 01:50:38;;;;;;;;;;;;;;;30.04;61.37;101127.81;4977431;28;65567;-42
2022/02/21 01:53:07;;;;;;;;;;;;;;;30.05;61.51;101126.78;4977227;28;70071;-41
2022/02/21 01:55:37;;;;;;;;;;;;;;;30.07;61.28;101130.09;4970283;28;65179;-40
2022/02/21 01:58:07;;;;;;;;;;;;;;;30.09;61.37;101128.03;4972310;28;70279;-40
2022/02/21 02:00:37;;;;;;;;;;;;;;;30.11;60.83;101127.81;4978444;28;65814;-41
2022/02/21 02:03:07;;;;;;;;;;;;;;;30.12;61.37;101143.00;4977464;28;69253;-41
2022/02/21 02:05:37;;;;;;;;;;;;;;;30.14;60.72;101147.16;4976280;28;66135;-40
2022/02/21 02:08:07;;;;;;;;;;;;;;;30.16;60.55;101145.06;4939849;28;68920;-41
2022/02/21 02:10:37;;;;;;;;;;;;;;;30.18;60.12;101151.13;4977662;28;66645;-41
2022/02/21 02:13:06;;;;;;;;;;;;;;;30.20;60.22;101151.75;4968776;28;69333;-40
2022/02/21 02:15:36;;;;;;;;;;;;;;;30.22;60.72;101157.78;4973498;28;65739;-41
2022/02/21 02:18:06;;;;;;;;;;;;;;;30.25;59.86;101160.06;4970981;28;69748;-40
2022/02/21 02:20:36;;;;;;;;;;;;;;;30.28;59.92;101165.09;4971073;28;66555;-40
2022/02/21 02:23:06;;;;;;;;;;;;;;;30.30;59.28;101161.34;4976431;28;69178;-40
2022/02/21 02:25:35;;;;;;;;;;;;;;;30.32;58.61;101164.66;4976314;28;65380;-41
2022/02/21 02:28:05;;;;;;;;;;;;;;;30.34;59.19;101167.97;4961836;28;70577;-41
2022/02/21 02:30:35;;;;;;;;;;;;;;;30.36;58.63;101165.91;4965915;28;65882;-41
2022/02/21 02:33:05;;;;;;;;;;;;;;;30.38;58.26;101161.94;4978422;28;70673;-41
2022/02/21 02:35:34;;;;;;;;;;;;;;;30.42;58.69;101159.63;4959342;28;67029;-40
2022/02/21 02:38:05;;;;;;;;;;;;;;;30.44;59.16;101162.97;4977880;28;70175;-41
2022/02/21 02:40:34;;;;;;;;;;;;;;;30.47;58.44;101167.97;4976841;28;66267;-41
2022/02/21 02:43:04;;;;;;;;;;;;;;;30.50;57.99;101167.53;4974737;28;70136;-42
2022/02/21 02:45:36;;;;;;;;;;;;;;;30.54;58.02;101174.22;4974733;28;66591;-40
2022/02/21 02:48:07;;;;;;;;;;;;;;;30.57;58.71;101176.50;4991740;28;70208;-41
2022/02/21 02:50:37;;;;;;;;;;;;;;;30.59;58.02;101171.72;4976056;28;66472;-41
2022/02/21 02:53:07;;;;;;;;;;;;;;;30.61;57.99;101180.44;4979183;28;69199;-41
2022/02/21 02:55:36;;;;;;;;;;;;;;;30.65;58.07;101167.31;4994871;27;65507;-41
2022/02/21 02:58:06;;;;;;;;;;;;;;;30.67;57.48;101176.91;4981305;28;70457;-40
2022/02/21 03:00:36;;;;;;;;;;;;;;;30.69;57.53;101174.78;4971372;27;66665;-40
2022/02/21 03:03:06;;;;;;;;;;;;;;;30.72;58.03;101171.66;4970888;28;70335;-40
2022/02/21 03:05:36;;;;;;;;;;;;;;;30.75;57.44;101172.28;4976327;28;66212;-41
2022/02/21 03:08:05;;;;;;;;;;;;;;;30.78;57.49;101166.44;4976194;28;70611;-40
2022/02/21 03:10:35;;;;;;;;;;;;;;;30.79;57.01;101166.25;4974010;27;66968;-40
2022/02/21 03:13:05;;;;;;;;;;;;;;;30.82;56.88;101170.44;4951071;28;70081;-40
2022/02/21 03:15:34;;;;;;;;;;;;;;;30.85;56.93;101162.72;4970040;28;67376;-40
2022/02/21 03:18:04;;;;;;;;;;;;;;;30.86;57.22;101161.66;4947870;28;69721;-41
2022/02/21 03:20:34;;;;;;;;;;;;;;;30.89;56.46;101163.94;4978129;28;66486;-41
2022/02/21 03:23:03;;;;;;;;;;;;;;;30.91;56.82;101163.72;4961903;28;69476;-40
2022/02/21 03:25:33;;;;;;;;;;;;;;;30.94;57.04;101163.28;4970271;28;65527;-40
2022/02/21 03:28:03;;;;;;;;;;;;;;;30.97;56.92;101156.63;4977603;28;70434;-41
2022/02/21 03:30:33;;;;;;;;;;;;;;;30.98;56.78;101142.88;4991779;28;66143;-40
2022/02/21 03:33:03;;;;;;;;;;;;;;;31.01;56.69;101155.13;4962120;28;69226;-41
2022/02/21 03:35:33;;;;;;;;;;;;;;;31.03;56.25;101143.03;4980234;28;67228;-41
2022/02/21 03:38:02;;;;;;;;;;;;;;;31.04;56.58;101125.75;4983139;27;70351;-40
2022/02/21 03:40:32;;;;;;;;;;;;;;;31.05;56.61;101127.41;4978982;28;67481;-41
2022/02/21 03:43:01;;;;;;;;;;;;;;;31.08;56.72;101131.56;4978775;28;71120;-40
2022/02/21 03:45:32;;;;;;;;;;;;;;;31.10;56.71;101130.31;4978728;28;66459;-41
2022/02/21 03:48:02;;;;;;;;;;;;;;;31.11;55.93;101118.41;4979628;28;69558;-40
2022/02/21 03:50:32;;;;;;;;;;;;;;;31.13;56.47;101119.03;4979560;28;66088;-40
2022/02/21 03:53:02;;;;;;;;;;;;;;;31.15;55.98;101116.94;4981268;27;70509;-41
2022/02/21 03:55:31;;;;;;;;;;;;;;;31.15;56.16;101122.38;4964172;28;65808;-39
2022/02/21 03:58:01;;;;;;;;;;;;;;;31.20;55.74;101118.16;4963127;28;71033;-40
2022/02/21 04:00:31;;;;;;;;;;;;;;;31.22;55.64;101121.50;4979219;28;65849;-46
2022/02/21 04:03:01;;;;;;;;;;;;;;;31.23;56.10;101112.31;4978531;28;69903;-41
2022/02/21 04:05:30;;;;;;;;;;;;;;;31.23;55.94;101107.75;4992519;28;66748;-41
2022/02/21 04:08:00;;;;;;;;;;;;;;;31.25;55.69;101104.78;4989047;28;69272;-41
2022/02/21 04:10:30;;;;;;;;;;;;;;;31.26;55.75;101107.28;4981905;27;65957;-40
2022/02/21 04:13:00;;;;;;;;;;;;;;;31.27;55.88;101092.69;4977931;28;71110;-40
2022/02/21 04:15:29;;;;;;;;;;;;;;;31.30;55.91;101096.84;4979031;28;66132;-40
2022/02/21 04:17:59;;;;;;;;;;;;;;;31.30;55.48;101083.28;4979876;28;70736;-41
2022/02/21 04:20:30;;;;;;;;;;;;;;;31.31;55.45;101077.63;4979417;27;66601;-41
2022/02/21 04:23:00;;;;;;;;;;;;;;;31.34;55.14;101076.38;4965900;28;70568;-41
2022/02/21 04:25:29;;;;;;;;;;;;;;;31.36;55.20;101071.59;4978722;28;66982;-41
2022/02/21 04:28:00;;;;;;;;;;;;;;;31.36;55.39;101068.88;4986913;28;70456;-40
2022/02/21 04:30:29;;;;;;;;;;;;;;;31.38;55.32;101061.38;4971271;28;65528;-41
2022/02/21 04:32:59;;;;;;;;;;;;;;;31.41;55.01;101051.97;4978469;28;68873;-41
2022/02/21 04:35:29;;;;;;;;;;;;;;;31.42;55.57;101051.75;4978985;28;67421;-41
2022/02/21 04:37:58;;;;;;;;;;;;;;;31.44;55.05;101055.06;4978723;28;70111;-41
2022/02/21 04:40:29;;;;;;;;;;;;;;;31.46;55.31;101052.97;4961900;28;66348;-41
2022/02/21 04:42:59;;;;;;;;;;;;;;;31.50;54.74;101043.34;4979250;28;71023;-41
2022/02/21 04:45:30;;;;;;;;;;;;;;;31.51;55.09;101041.44;4979148;28;66625;-41
2022/02/21 04:47:59;;;;;;;;;;;;;;;31.52;54.73;101041.25;4979067;28;69148;-41
2022/02/21 04:50:29;;;;;;;;;;;;;;;31.53;55.21;101042.88;4972499;28;65280;-41
2022/02/21 04:52:58;;;;;;;;;;;;;;;31.55;54.59;101027.25;4975673;28;70462;-42
2022/02/21 04:55:28;;;;;;;;;;;;;;;31.55;54.94;101029.94;4972048;28;66179;-40
2022/02/21 04:57:58;;;;;;;;;;;;;;;31.57;54.71;101027.03;4958594;28;70092;-41
2022/02/21 05:00:28;;;;;;;;;;;;;;;31.56;54.73;101015.34;4976903;28;64256;-39
2022/02/21 05:02:58;;;;;;;;;;;;;;;31.57;54.65;101011.59;4991624;27;70479;-40
2022/02/21 05:05:28;;;;;;;;;;;;;;;31.58;54.88;101007.81;4958362;28;66017;-40
2022/02/21 05:07:58;;;;;;;;;;;;;;;31.60;54.86;101007.59;4971513;28;69184;-40
2022/02/21 05:10:29;;;;;;;;;;;;;;;31.60;55.03;101003.00;4979666;28;66033;-40
2022/02/21 05:12:59;;;;;;;;;;;;;;;31.60;54.53;101000.28;4990011;28;69603;-41
2022/02/21 05:15:29;;;;;;;;;;;;;;;31.61;54.99;101001.13;4978181;28;66267;-41
2022/02/21 05:17:59;;;;;;;;;;;;;;;31.48;54.88;100963.28;4971600;27;70273;-41
2022/02/21 05:20:29;;;;;;;;;;;;;;;31.64;55.05;100989.00;4972404;28;66258;-40
2022/02/21 05:23:00;;;;;;;;;;;;;;;31.65;54.47;100974.38;4965194;28;69228;-40
2022/02/21 05:25:29;;;;;;;;;;;;;;;31.66;54.46;100978.78;4977135;28;65773;-40
2022/02/21 05:27:59;;;;;;;;;;;;;;;31.68;54.42;100971.22;4964313;28;70486;-40
2022/02/21 05:30:29;;;;;;;;;;;;;;;31.69;54.51;100964.75;4978443;28;65379;-40
2022/02/21 05:32:59;;;;;;;;;;;;;;;31.72;54.32;100964.31;4975160;28;70198;-40
2022/02/21 05:35:29;;;;;;;;;;;;;;;31.74;54.84;100962.22;4978948;28;66082;-40
2022/02/21 05:37:58;;;;;;;;;;;;;;;31.65;54.37;100941.84;4980397;28;70710;-41
2022/02/21 05:40:28;;;;;;;;;;;;;;;31.75;54.56;100955.72;4987438;28;66582;-40
2022/02/21 05:42:58;;;;;;;;;;;;;;;31.76;54.74;100954.66;4974586;28;69893;-40
2022/02/21 05:45:28;;;;;;;;;;;;;;;31.76;54.44;100950.09;4960739;28;66849;-40
2022/02/21 05:47:59;;;;;;;;;;;;;;;31.78;54.52;100947.13;4974882;28;70332;-41
2022/02/21 05:50:28;;;;;;;;;;;;;;;31.78;54.51;100941.69;4981301;28;66360;-40
2022/02/21 05:52:58;;;;;;;;;;;;;;;31.78;54.71;100930.84;4975265;28;68844;-40
2022/02/21 05:55:29;;;;;;;;;;;;;;;31.80;54.56;100923.34;4972333;28;64759;-40
2022/02/21 05:58:00;;;;;;;;;;;;;;;31.80;54.64;100912.47;4980122;27;70035;-41
2022/02/21 06:00:30;;;;;;;;;;;;;;;31.82;54.61;100899.53;4976738;28;65749;-41
2022/02/21 06:03:00;;;;;;;;;;;;;;;31.85;54.83;100901.78;4961606;28;69023;-40
2022/02/21 06:05:30;;;;;;;;;;;;;;;31.87;54.76;100902.38;4976007;28;66092;-40
2022/02/21 06:08:00;;;;;;;;;;;;;;;31.89;54.62;100900.25;4978093;28;70232;-41
2022/02/21 06:10:29;;;;;;;;;;;;;;;31.91;54.14;100892.78;4973284;28;65823;-41
2022/02/21 06:12:59;;;;;;;;;;;;;;;31.92;54.08;100888.97;4975435;28;69873;-42
2022/02/21 06:15:29;;;;;;;;;;;;;;;31.93;54.27;100885.25;4977026;28;66308;-41
2022/02/21 06:17:59;;;;;;;;;;;;;;;31.95;54.02;100876.84;4986164;28;70134;-40
2022/02/21 06:20:30;;;;;;;;;;;;;;;31.97;54.07;100867.44;4977311;28;65733;-45
2022/02/21 06:22:59;;;;;;;;;;;;;;;32.00;54.63;100864.25;4975283;28;69260;-41
2022/02/21 06:25:31;;;;;;;;;;;;;;;32.03;54.28;100852.13;4975345;28;66052;-41
2022/02/21 06:28:01;;;;;;;;;;;;;;;32.05;54.26;100845.41;4977428;28;69732;-40
2022/02/21 06:30:31;;;;;;;;;;;;;;;32.08;54.16;100846.84;4977014;28;66631;-40
2022/02/21 06:33:01;;;;;;;;;;;;;;;32.11;54.35;100837.41;4975937;28;70121;-41
2022/02/21 06:35:31;;;;;;;;;;;;;;;32.13;54.31;100835.31;4976973;28;66972;-41
2022/02/21 06:38:04;;;;;;;;;;;;;;;32.15;53.85;100838.59;4977731;28;70266;-40
2022/02/21 06:40:34;;;;;;;;;;;;;;;32.17;53.98;100831.06;4974779;28;66073;-41
2022/02/21 06:43:04;;;;;;;;;;;;;;;32.18;53.75;100827.28;4977560;28;70680;-40
2022/02/21 06:45:33;;;;;;;;;;;;;;;32.21;53.82;100821.41;4976787;28;66311;-40
2022/02/21 06:48:03;;;;;;;;;;;;;;;32.23;54.19;100819.28;4958310;28;69516;-40
2022/02/21 06:50:33;;;;;;;;;;;;;;;32.23;54.08;100809.28;4978838;27;67334;-41
2022/02/21 06:53:03;;;;;;;;;;;;;;;32.23;54.02;100797.56;4960013;28;68999;-41
2022/02/21 06:55:33;;;;;;;;;;;;;;;32.24;53.77;100801.94;4974273;28;66244;-40
2022/02/21 06:58:03;;;;;;;;;;;;;;;32.25;53.73;100796.28;4976043;28;69461;-41
2022/02/21 07:00:33;;;;;;;;;;;;;;;32.26;53.83;100797.09;4975273;28;66754;-41
2022/02/21 07:03:02;;;;;;;;;;;;;;;32.27;54.16;100794.16;4974368;28;70475;-41
2022/02/21 07:05:33;;;;;;;;;;;;;;;32.28;53.88;100789.56;4976685;28;65470;-41
2022/02/21 07:08:03;;;;;;;;;;;;;;;32.27;53.88;100786.03;4975299;28;69945;-40
2022/02/21 07:10:33;;;;;;;;;;;;;;;32.30;53.88;100782.03;4972777;28;66429;-40
2022/02/21 07:13:03;;;;;;;;;;;;;;;32.32;54.03;100779.06;4977517;28;70401;-40
2022/02/21 07:15:33;;;;;;;;;;;;;;;32.35;54.13;100774.00;4977029;28;66014;-40
2022/02/21 07:18:02;;;;;;;;;;;;;;;32.38;53.51;100768.13;4974759;28;70509;-40
2022/02/21 07:20:32;;;;;;;;;;;;;;;32.39;53.62;100763.50;4977828;28;66903;-40
2022/02/21 07:23:02;;;;;;;;;;;;;;;32.40;53.74;100765.16;4976514;28;69384;-40
2022/02/21 07:25:32;;;;;;;;;;;;;;;32.42;53.77;100763.84;4976030;28;66261;-40
2022/02/21 07:28:02;;;;;;;;;;;;;;;32.43;53.57;100751.94;4975193;28;69773;-41
2022/02/21 07:30:31;;;;;;;;;;;;;;;32.44;53.89;100745.44;4976887;28;66214;-40
2022/02/21 07:33:01;;;;;;;;;;;;;;;32.44;53.47;100734.59;4974381;28;69949;-41
2022/02/21 07:35:31;;;;;;;;;;;;;;;32.44;53.65;100733.78;4978407;28;66820;-40
2022/02/21 07:38:01;;;;;;;;;;;;;;;32.44;53.92;100733.78;4955657;28;68880;-41
2022/02/21 07:40:31;;;;;;;;;;;;;;;32.44;54.01;100741.91;4973428;28;66580;-41
2022/02/21 07:43:01;;;;;;;;;;;;;;;32.45;54.08;100735.41;4973805;28;69507;-41
2022/02/21 07:45:31;;;;;;;;;;;;;;;32.44;54.10;100734.59;4974590;28;66676;-41
2022/02/21 07:48:03;;;;;;;;;;;;;;;32.44;53.70;100731.88;4959420;28;69260;-41
2022/02/21 07:50:35;;;;;;;;;;;;;;;32.45;54.00;100747.09;4978383;28;65985;-40
2022/02/21 07:53:07;;;;;;;;;;;;;;;32.45;54.06;100744.38;4976292;28;70648;-41
2022/02/21 07:55:37;;;;;;;;;;;;;;;32.46;54.06;100745.25;4972788;28;66892;-43
2022/02/21 07:58:07;;;;;;;;;;;;;;;32.45;54.05;100747.09;4958986;28;70125;-41
2022/02/21 08:00:37;;;;;;;;;;;;;;;32.46;54.06;100747.97;4973309;28;65507;-41
2022/02/21 08:03:07;;;;;;;;;;;;;;;32.48;54.46;100757.53;4974248;28;70054;-41
2022/02/21 08:05:38;;;;;;;;;;;;;;;32.47;54.16;100769.44;4976702;28;67107;-40
2022/02/21 08:08:13;;;;;;;;;;;;;;;32.49;54.27;100783.63;4972924;28;69288;-41
2022/02/21 08:10:43;;;;;;;;;;;;;;;32.49;54.34;100797.19;4977553;28;65541;-41
2022/02/21 08:13:13;;;;;;;;;;;;;;;32.51;54.39;100785.28;4977052;28;70931;-41
2022/02/21 08:15:43;;;;;;;;;;;;;;;32.48;54.27;100784.69;4975622;28;65192;-40
2022/02/21 08:18:13;;;;;;;;;;;;;;;32.46;54.66;100775.94;4979102;28;70775;-40
2022/02/21 08:20:42;;;;;;;;;;;;;;;32.44;54.80;100755.50;4978126;28;67075;-40
2022/02/21 08:23:12;;;;;;;;;;;;;;;32.41;54.85;100762.22;4979465;27;70290;-41
2022/02/21 08:25:42;;;;;;;;;;;;;;;32.40;55.17;100776.84;4978831;28;65839;-41
2022/02/21 08:28:12;;;;;;;;;;;;;;;32.40;55.58;100770.56;4980977;28;70566;-40
2022/02/21 08:30:42;;;;;;;;;;;;;;;32.38;55.76;100778.97;4977354;28;66674;-41
2022/02/21 08:33:11;;;;;;;;;;;;;;;32.36;55.81;100816.38;4970353;28;70194;-40
2022/02/21 08:35:41;;;;;;;;;;;;;;;32.34;55.74;100832.06;4959456;28;67048;-41
2022/02/21 08:38:11;;;;;;;;;;;;;;;32.33;56.22;100800.56;4976452;28;70498;-41
2022/02/21 08:40:42;;;;;;;;;;;;;;;32.31;56.01;100774.69;4979809;28;66179;-39
2022/02/21 08:43:13;;;;;;;;;;;;;;;32.27;56.34;100767.03;4979754;28;69790;-40
2022/02/21 08:45:42;;;;;;;;;;;;;;;32.24;56.67;100756.63;4976062;28;66572;-40
2022/02/21 08:48:12;;;;;;;;;;;;;;;32.22;56.52;100766.06;4963817;28;71133;-40
2022/02/21 08:50:42;;;;;;;;;;;;;;;32.20;56.91;100770.88;4977091;28;66526;-40
2022/02/21 08:53:11;;;;;;;;;;;;;;;32.17;56.97;100774.06;4976230;28;69775;-40
2022/02/21 08:55:41;;;;;;;;;;;;;;;32.15;57.13;100763.47;4977478;28;66191;-40
2022/02/21 08:58:11;;;;;;;;;;;;;;;32.11;56.74;100745.97;4979116;28;70332;-41
2022/02/21 09:00:43;;;;;;;;;;;;;;;32.08;56.98;100746.44;4976246;28;66249;-41
2022/02/21 09:03:19;;;;;;;;;;;;;;;32.05;57.03;100734.16;4972305;28;69144;-41
2022/02/21 09:05:51;;;;;;;;;;;;;;;32.02;57.02;100737.34;4980687;28;66938;-41
2022/02/21 09:08:20;;;;;;;;;;;;;;;32.00;56.90;100750.31;4970713;28;70323;-40
2022/02/21 09:10:50;;;;;;;;;;;;;;;31.98;56.86;100743.47;4973168;28;66182;-40
2022/02/21 09:13:20;;;;;;;;;;;;;;;31.94;57.16;100745.00;4960479;28;70253;-40
2022/02/21 09:15:50;;;;;;;;;;;;;;;31.91;57.37;100735.44;4969934;28;66237;-41
2022/02/21 09:18:20;;;;;;;;;;;;;;;31.87;56.97;100739.59;4972196;27;70286;-40
2022/02/21 09:20:51;;;;;;;;;;;;;;;31.85;57.52;100741.75;4975923;28;66394;-41
2022/02/21 09:23:22;;;;;;;;;;;;;;;31.81;57.76;100737.81;4969285;28;70353;-40
2022/02/21 09:25:52;;;;;;;;;;;;;;;31.78;57.32;100739.09;4976456;28;65456;-41
2022/02/21 09:28:23;;;;;;;;;;;;;;;31.76;57.56;100738.53;4980337;28;69165;-41
2022/02/21 09:30:55;;;;;;;;;;;;;;;31.73;57.90;100738.13;4977173;28;66678;-41
2022/02/21 09:33:25;;;;;;;;;;;;;;;31.71;57.87;100740.28;4979009;28;69458;-41
2022/02/21 09:35:55;;;;;;;;;;;;;;;31.68;58.66;100740.72;4972613;28;67114;-40
2022/02/21 09:38:26;;;;;;;;;;;;;;;31.64;58.10;100729.50;4960363;28;69895;-42
2022/02/21 09:40:56;;;;;;;;;;;;;;;31.64;58.02;100736.81;4978615;28;66498;-41
2022/02/21 09:43:28;;;;;;;;;;;;;;;31.63;58.75;100738.72;4969343;28;70672;-41
2022/02/21 09:45:58;;;;;;;;;;;;;;;31.61;58.49;100741.63;4976646;28;65812;-40
2022/02/21 09:48:28;;;;;;;;;;;;;;;31.60;58.47;100740.00;4975260;28;69047;-41
2022/02/21 09:51:01;;;;;;;;;;;;;;;31.60;58.13;100736.47;4967595;28;66907;-40
2022/02/21 09:53:34;;;;;;;;;;;;;;;31.59;58.44;100743.78;4976749;28;69836;-40
2022/02/21 09:56:04;;;;;;;;;;;;;;;31.57;58.18;100745.88;4980555;28;66230;-40
2022/02/21 09:58:34;;;;;;;;;;;;;;;31.58;58.75;100742.09;4975821;28;70640;-40
2022/02/21 10:01:04;;;;;;;;;;;;;;;31.57;58.67;100740.44;4975768;28;66549;-41
2022/02/21 10:03:36;;;;;;;;;;;;;;;31.58;58.70;100752.13;4972894;28;70586;-40
2022/02/21 10:06:18;;;;;;;;;;;;;;;31.57;58.38;100745.88;4977113;28;66892;-41
2022/02/21 10:09:00;;;;;;;;;;;;;;;31.57;58.40;100751.28;4975302;28;69276;-40
2022/02/21 10:11:39;;;;;;;;;;;;;;;31.58;58.91;100763.78;4970354;28;67119;-40
2022/02/21 10:14:20;;;;;;;;;;;;;;;31.58;58.55;100769.22;4981656;28;69434;-41
2022/02/21 10:16:51;;;;;;;;;;;;;;;31.58;58.59;100769.22;4973278;28;66389;-40
2022/02/21 10:19:28;;;;;;;;;;;;;;;31.60;57.81;100777.13;4976072;28;69070;-40
2022/02/21 10:22:06;;;;;;;;;;;;;;;31.61;58.42;100784.19;4959656;28;66055;-41
2022/02/21 10:24:36;;;;;;;;;;;;;;;31.60;58.68;100782.56;4977528;28;69764;-40
2022/02/21 10:27:07;;;;;;;;;;;;;;;31.61;59.38;100784.19;4975895;28;66412;-41
2022/02/21 10:29:49;;;;;;;;;;;;;;;31.59;58.91;100786.28;4980610;27;71164;-40
2022/02/21 10:32:23;;;;;;;;;;;;;;;31.60;58.92;100788.78;4968674;28;66286;-41
2022/02/21 10:34:54;;;;;;;;;;;;;;;31.60;60.70;100805.06;4976941;28;69204;-41
2022/02/21 10:37:25;;;;;;;;;;;;;;;31.59;61.25;100803.41;4979497;28;66365;-40
2022/02/21 10:40:05;;;;;;;;;;;;;;;31.47;62.33;100794.38;4977209;28;70029;-43
2022/02/21 10:42:36;;;;;;;;;;;;;;;31.37;63.52;100791.34;4978332;28;66291;-41
2022/02/21 10:45:09;;;;;;;;;;;;;;;31.23;64.11;100793.38;4977161;27;70256;-41
2022/02/21 10:47:40;;;;;;;;;;;;;;;31.21;64.29;100794.66;4961444;28;66034;-42
2022/02/21 10:50:10;;;;;;;;;;;;;;;31.10;64.15;100788.09;4975944;28;70260;-42
2022/02/21 10:52:40;;;;;;;;;;;;;;;31.05;64.51;100782.50;4976822;28;66917;-42
2022/02/21 10:55:14;;;;;;;;;;;;;;;30.98;63.56;100779.88;4975221;28;69234;-42
2022/02/21 10:57:44;;;;;;;;;;;;;;;30.94;63.17;100779.47;4973801;28;65535;-41
2022/02/21 11:00:14;;;;;;;;;;;;;;;30.89;63.14;100779.31;5042512;28;69311;-41
2022/02/21 11:02:44;;;;;;;;;;;;;;;30.87;62.71;100783.28;4971379;28;66402;-42
2022/02/21 11:05:15;;;;;;;;;;;;;;;30.81;62.17;100784.19;4976469;28;69562;-41
2022/02/21 11:07:46;;;;;;;;;;;;;;;30.78;62.52;100798.13;4982479;27;66180;-41
2022/02/21 11:10:16;;;;;;;;;;;;;;;30.69;62.44;100803.84;4975663;28;70227;-41
2022/02/21 11:12:50;;;;;;;;;;;;;;;30.65;61.40;100813.47;4981467;28;66249;-41
2022/02/21 11:15:21;;;;;;;;;;;;;;;30.63;62.61;100820.97;4976098;28;70121;-42
2022/02/21 11:17:51;;;;;;;;;;;;;;;30.64;62.89;100830.72;4957482;28;66508;-41
2022/02/21 11:20:22;;;;;;;;;;;;;;;30.63;62.47;100830.97;4958478;28;69561;-41
2022/02/21 11:22:51;;;;;;;;;;;;;;;30.60;63.25;100837.66;4974754;28;64906;-41
2022/02/21 11:25:25;;;;;;;;;;;;;;;30.62;62.68;100838.28;4969004;28;69436;-44
2022/02/21 11:28:02;;;;;;;;;;;;;;;30.59;62.21;100849.53;4958002;28;66287;-41
2022/02/21 11:30:33;;;;;;;;;;;;;;;30.58;62.53;100849.75;4958309;28;70192;-41
2022/02/21 11:33:04;;;;;;;;;;;;;;;30.57;62.77;100851.63;4977707;28;66199;-41
2022/02/21 11:35:35;;;;;;;;;;;;;;;30.56;62.66;100852.66;4975757;28;69841;-41
2022/02/21 11:38:21;;;;;;;;;;;;;;;30.54;62.70;100856.66;4975560;28;67332;-42
2022/02/21 11:41:10;;;;;;;;;;;;;;;30.53;62.75;100850.38;4956395;28;68880;-41
2022/02/21 11:43:43;;;;;;;;;;;;;;;30.49;63.17;100847.31;4976301;28;66419;-41
2022/02/21 11:46:23;;;;;;;;;;;;;;;30.47;63.46;100853.97;4969188;28;70291;-41
2022/02/21 11:48:54;;;;;;;;;;;;;;;30.45;63.32;100853.34;4977744;28;65700;-40
2022/02/21 11:51:26;;;;;;;;;;;;;;;30.45;63.16;100866.88;4976349;28;69222;-41
2022/02/21 11:54:15;;;;;;;;;;;;;;;30.44;63.75;100876.06;4978430;27;66252;-42
2022/02/21 11:56:50;;;;;;;;;;;;;;;30.46;63.51;100879.41;4976148;28;70250;-41
2022/02/21 11:59:22;;;;;;;;;;;;;;;30.42;63.89;100887.13;4976748;28;66245;-42
2022/02/21 12:02:02;;;;;;;;;;;;;;;30.40;64.01;100896.50;4976988;28;69646;-41
2022/02/21 12:04:56;;;;;;;;;;;;;;;30.42;63.72;100892.53;4975416;28;66623;-41
2022/02/21 12:07:34;;;;;;;;;;;;;;;30.45;63.84;100896.66;4976718;28;69829;-42
2022/02/21 12:10:21;;;;;;;;;;;;;;;30.43;63.64;100902.31;4976020;28;65433;-40
2022/02/21 12:12:52;;;;;;;;;;;;;;;30.44;64.03;100911.25;4974461;28;70684;-41
2022/02/21 12:15:22;;;;;;;;;;;;;;;30.45;64.12;100927.28;4967550;28;65968;-40
2022/02/21 12:18:02;;;;;;;;;;;;;;;30.48;64.87;100936.84;4975851;28;70195;-42
2022/02/21 12:20:33;;;;;;;;;;;;;;;30.51;65.07;100947.25;4977102;28;66269;-43
2022/02/21 12:23:06;;;;;;;;;;;;;;;30.57;65.30;100959.91;4979528;28;69502;-42
2022/02/21 12:25:40;;;;;;;;;;;;;;;30.61;65.32;100968.44;4975568;28;67384;-41
2022/02/21 12:28:14;;;;;;;;;;;;;;;30.63;65.32;100986.13;4972819;28;69542;-41
2022/02/21 12:30:45;;;;;;;;;;;;;;;30.65;64.99;100992.16;4976188;28;66032;-42
2022/02/21 12:33:22;;;;;;;;;;;;;;;30.65;65.02;100994.03;4976105;28;70508;-42
2022/02/21 12:35:57;;;;;;;;;;;;;;;30.66;65.07;100992.97;4976503;28;65720;-41
2022/02/21 12:38:29;;;;;;;;;;;;;;;30.66;65.20;101004.63;4977410;28;69843;-42
2022/02/21 12:41:07;;;;;;;;;;;;;;;30.68;65.07;101007.97;4975938;28;66660;-41
2022/02/21 12:43:46;;;;;;;;;;;;;;;30.67;64.96;101019.84;4974167;28;69460;-42
2022/02/21 12:46:18;;;;;;;;;;;;;;;30.70;65.42;101022.13;4974393;28;65503;-44
2022/02/21 12:48:51;;;;;;;;;;;;;;;30.60;63.47;101026.34;4974788;28;70343;-41
2022/02/21 12:51:32;;;;;;;;;;;;;;;30.34;63.97;101021.84;4982204;28;65997;-41
2022/02/21 12:54:08;;;;;;;;;;;;;;;30.17;65.06;101030.41;4975371;28;69116;-40